createdAt,value
2022-11-29T00:01:37.475Z,25.95
2022-11-29T00:04:06.965Z,20.33
2022-11-29T00:06:35.732Z,20.17
2022-11-29T00:09:07.291Z,26.17
2022-11-29T00:11:54.831Z,19.77
2022-11-29T00:14:23.571Z,23.77
2022-11-29T00:16:53.492Z,19.67
2022-11-29T00:19:23.366Z,19.92
2022-11-29T00:21:51.128Z,22.63
2022-11-29T00:24:18.991Z,23.50
2022-11-29T00:26:46.788Z,23.63
2022-11-29T00:29:15.252Z,25.17
2022-11-29T00:31:43.547Z,24.20
2022-11-29T00:34:13.324Z,23.13
2022-11-29T00:36:42.462Z,22.42
2022-11-29T00:39:12.118Z,22.83
2022-11-29T00:41:40.469Z,23.65
2022-11-29T00:44:08.486Z,24.83
2022-11-29T00:46:36.323Z,25.48
2022-11-29T00:49:04.597Z,23.52
2022-11-29T00:51:32.642Z,25.90
2022-11-29T00:54:01.871Z,26.58
2022-11-29T00:56:29.653Z,22.67
2022-11-29T00:58:57.479Z,22.75
2022-11-29T01:01:25.463Z,25.77
2022-11-29T01:03:53.337Z,24.73
2022-11-29T01:06:21.138Z,24.55
2022-11-29T01:08:49.596Z,22.73
2022-11-29T01:11:20.956Z,25.67
2022-11-29T01:13:49.313Z,26.73
2022-11-29T01:16:18.116Z,25.13
2022-11-29T01:18:45.977Z,29.30
2022-11-29T01:21:16.635Z,28.48
2022-11-29T01:23:45.673Z,33.83
2022-11-29T01:26:16.377Z,26.33
2022-11-29T01:28:47.315Z,25.48
2022-11-29T01:31:18.033Z,27.85
2022-11-29T01:33:45.820Z,30.13
2022-11-29T01:36:14.431Z,28.70
2022-11-29T01:38:43.519Z,30.33
2022-11-29T01:41:15.646Z,25.50
2022-11-29T01:44:01.804Z,24.25
2022-11-29T01:46:30.834Z,24.33
2022-11-29T01:49:03.129Z,26.88
2022-11-29T01:51:32.177Z,23.23
2022-11-29T01:54:00.164Z,26.42
2022-11-29T01:56:29.744Z,23.70
2022-11-29T01:58:57.862Z,21.95
2022-11-29T02:01:27.325Z,30.85
2022-11-29T02:03:55.333Z,22.63
2022-11-29T02:06:23.663Z,22.20
2022-11-29T02:08:51.428Z,20.05
2022-11-29T02:11:40.410Z,24.35
2022-11-29T02:14:24.479Z,24.83
2022-11-29T02:17:02.593Z,25.00
2022-11-29T02:19:57.966Z,19.95
2022-11-29T02:22:32.017Z,26.45
2022-11-29T02:25:22.521Z,22.15
2022-11-29T02:28:30.845Z,21.58
2022-11-29T02:31:43.566Z,16.50
2022-11-29T02:34:36.767Z,22.13
2022-11-29T02:37:20.416Z,20.02
2022-11-29T02:40:03.112Z,18.00
2022-11-29T02:42:56.031Z,21.67
2022-11-29T02:46:00.072Z,20.48
2022-11-29T02:48:50.420Z,18.25
2022-11-29T02:51:30.800Z,20.67
2022-11-29T02:54:03.177Z,19.08
2022-11-29T02:56:37.494Z,15.95
2022-11-29T02:59:13.837Z,19.40
2022-11-29T03:01:53.200Z,19.10
2022-11-29T03:04:29.821Z,20.17
2022-11-29T03:07:06.466Z,19.63
2022-11-29T03:09:40.564Z,19.60
2022-11-29T03:12:20.077Z,22.05
2022-11-29T03:14:58.438Z,25.33
2022-11-29T03:17:33.975Z,19.55
2022-11-29T03:20:18.575Z,20.08
2022-11-29T03:23:06.088Z,24.77
2022-11-29T03:25:39.877Z,22.02
2022-11-29T03:28:15.489Z,18.00
2022-11-29T03:30:51.270Z,18.45
2022-11-29T03:33:28.471Z,18.95
2022-11-29T03:36:02.827Z,19.85
2022-11-29T03:38:39.929Z,20.90
2022-11-29T03:41:18.750Z,19.10
2022-11-29T03:43:51.344Z,21.63
2022-11-29T03:46:26.867Z,22.40
2022-11-29T03:48:58.750Z,23.75
2022-11-29T03:51:38.875Z,14.07
2022-11-29T03:54:14.083Z,17.85
2022-11-29T03:56:42.402Z,15.97
2022-11-29T03:59:25.725Z,16.13
2022-11-29T04:02:37.015Z,17.27
2022-11-29T04:05:32.482Z,19.88
2022-11-29T04:08:35.828Z,17.33
2022-11-29T04:11:54.633Z,19.10
2022-11-29T04:14:43.898Z,18.67
2022-11-29T04:17:39.272Z,15.57
2022-11-29T04:20:34.926Z,15.15
2022-11-29T04:23:38.733Z,16.65
2022-11-29T04:26:40.333Z,17.95
2022-11-29T04:29:23.224Z,17.92
2022-11-29T04:32:18.619Z,16.33
2022-11-29T04:35:09.282Z,16.83
2022-11-29T04:38:07.826Z,15.25
2022-11-29T04:40:56.928Z,27.63
2022-11-29T04:43:59.546Z,25.98
2022-11-29T04:46:40.967Z,23.67
2022-11-29T04:49:29.904Z,19.35
2022-11-29T04:52:16.498Z,23.83
2022-11-29T04:54:51.053Z,23.50
2022-11-29T04:57:25.882Z,20.10
2022-11-29T05:00:05.834Z,27.20
2022-11-29T05:02:39.329Z,29.40
2022-11-29T05:05:21.048Z,35.67
2022-11-29T05:07:59.389Z,39.72
2022-11-29T05:10:34.619Z,38.88
2022-11-29T05:13:10.615Z,44.85
2022-11-29T05:16:11.993Z,53.05
2022-11-29T05:19:18.344Z,53.85
2022-11-29T05:22:00.118Z,62.03
2022-11-29T05:24:41.861Z,57.92
2022-11-29T05:27:16.427Z,59.08
2022-11-29T05:29:55.215Z,71.90
2022-11-29T05:32:34.559Z,75.40
2022-11-29T05:35:35.193Z,85.18
2022-11-29T05:38:09.676Z,78.75
2022-11-29T05:40:45.376Z,82.70
2022-11-29T05:45:53.929Z,79.03
2022-11-29T05:48:29.691Z,79.38
2022-11-29T05:53:43.454Z,70.18
2022-11-29T05:56:17.894Z,71.65
2022-11-29T05:58:51.166Z,69.53
2022-11-29T06:01:24.004Z,73.30
2022-11-29T06:04:03.040Z,77.75
2022-11-29T06:06:39.608Z,76.80
2022-11-29T06:09:16.120Z,81.10
2022-11-29T06:11:48.127Z,75.65
2022-11-29T06:14:34.144Z,80.07
2022-11-29T06:17:25.404Z,78.68
2022-11-29T06:20:11.036Z,72.20
2022-11-29T06:22:56.864Z,81.57
2022-11-29T06:25:42.257Z,71.30
2022-11-29T06:31:01.034Z,75.47
2022-11-29T06:33:37.735Z,72.78
2022-11-29T06:36:16.416Z,70.47
2022-11-29T06:38:44.787Z,76.10
2022-11-29T06:41:19.191Z,75.43
2022-11-29T06:43:47.735Z,67.30
2022-11-29T06:46:24.177Z,67.65
2022-11-29T06:48:59.172Z,68.53
2022-11-29T06:51:36.252Z,67.30
2022-11-29T06:54:15.819Z,76.20
2022-11-29T06:56:52.556Z,65.80
2022-11-29T06:59:36.643Z,63.25
2022-11-29T07:02:20.254Z,62.10
2022-11-29T07:05:02.370Z,70.72
2022-11-29T07:07:32.328Z,57.60
2022-11-29T07:10:02.047Z,59.47
2022-11-29T07:12:30.381Z,64.55
2022-11-29T07:14:58.810Z,78.78
2022-11-29T07:17:32.029Z,70.20
2022-11-29T07:20:11.225Z,70.88
2022-11-29T07:22:53.561Z,77.38
2022-11-29T07:25:30.720Z,72.57
2022-11-29T07:28:06.238Z,84.90
2022-11-29T07:30:42.918Z,82.78
2022-11-29T07:33:19.063Z,87.07
2022-11-29T07:35:55.883Z,107.57
2022-11-29T07:38:32.757Z,103.45
2022-11-29T07:41:06.122Z,102.97
2022-11-29T07:43:45.620Z,126.25
2022-11-29T07:46:13.528Z,120.63
2022-11-29T07:48:41.346Z,140.98
2022-11-29T07:51:09.785Z,138.50
2022-11-29T07:53:43.761Z,140.82
2022-11-29T07:56:12.257Z,137.23
2022-11-29T07:58:40.606Z,136.80
2022-11-29T08:01:08.497Z,136.48
2022-11-29T08:03:36.430Z,160.98
2022-11-29T08:06:04.435Z,131.40
2022-11-29T08:08:32.186Z,161.63
2022-11-29T08:11:01.432Z,141.50
2022-11-29T08:13:29.144Z,149.23
2022-11-29T08:15:57.002Z,143.45
2022-11-29T08:18:24.823Z,129.90
2022-11-29T08:20:52.552Z,140.20
2022-11-29T08:23:20.334Z,137.38
2022-11-29T08:25:48.510Z,128.85
2022-11-29T08:28:17.633Z,139.10
2022-11-29T08:30:45.409Z,145.57
2022-11-29T08:33:13.153Z,146.38
2022-11-29T08:35:42.254Z,155.30
2022-11-29T08:38:10.081Z,139.20
2022-11-29T08:40:37.894Z,124.95
2022-11-29T08:43:05.722Z,136.45
2022-11-29T08:45:34.915Z,133.85
2022-11-29T08:48:02.726Z,135.63
2022-11-29T08:50:30.472Z,149.07
2022-11-29T08:53:16.677Z,127.45
2022-11-29T08:55:46.494Z,123.43
2022-11-29T08:58:16.340Z,151.82
2022-11-29T09:00:47.162Z,129.02
2022-11-29T09:03:32.592Z,133.02
2022-11-29T09:06:10.491Z,131.52
2022-11-29T09:08:40.253Z,132.05
2022-11-29T09:11:09.313Z,149.88
2022-11-29T09:13:37.047Z,142.15
2022-11-29T09:16:09.437Z,135.10
2022-11-29T09:18:38.780Z,132.57
2022-11-29T09:21:07.682Z,144.75
2022-11-29T09:23:36.164Z,129.52
2022-11-29T09:26:04.425Z,142.27
2022-11-29T09:28:33.261Z,128.13
2022-11-29T09:31:06.047Z,129.75
2022-11-29T09:33:35.526Z,136.23
2022-11-29T09:36:04.479Z,155.68
2022-11-29T09:38:32.252Z,125.40
2022-11-29T09:41:08.107Z,138.25
2022-11-29T09:43:47.402Z,138.90
2022-11-29T09:46:25.899Z,128.00
2022-11-29T09:49:09.948Z,136.65
2022-11-29T09:51:48.582Z,115.93
2022-11-29T09:54:27.934Z,115.22
2022-11-29T09:56:57.737Z,122.57
2022-11-29T09:59:28.934Z,125.43
2022-11-29T10:02:02.081Z,104.18
2022-11-29T10:04:37.277Z,112.45
2022-11-29T10:07:12.547Z,112.57
2022-11-29T10:09:45.883Z,107.70
2022-11-29T10:12:18.287Z,106.32
2022-11-29T10:14:57.533Z,99.47
2022-11-29T10:17:34.212Z,96.35
2022-11-29T10:20:11.780Z,106.63
2022-11-29T10:22:49.815Z,91.30
2022-11-29T10:25:24.811Z,82.68
2022-11-29T10:27:53.185Z,87.20
2022-11-29T10:30:21.448Z,79.45
2022-11-29T10:32:56.409Z,96.40
2022-11-29T10:35:25.839Z,82.78
2022-11-29T10:38:29.041Z,78.70
2022-11-29T10:40:48.373Z,81.15
2022-11-29T10:43:16.170Z,77.05
2022-11-29T10:45:50.315Z,76.30
2022-11-29T10:48:20.508Z,82.38
2022-11-29T10:50:51.447Z,76.63
2022-11-29T10:53:23.711Z,69.70
2022-11-29T10:55:58.476Z,76.88
2022-11-29T10:58:29.011Z,73.87
2022-11-29T11:00:59.347Z,83.03
2022-11-29T11:03:34.761Z,70.63
2022-11-29T11:06:11.940Z,76.72
2022-11-29T11:08:43.522Z,74.43
2022-11-29T11:11:12.860Z,72.22
2022-11-29T11:13:41.950Z,66.20
2022-11-29T11:16:18.524Z,68.63
2022-11-29T11:18:47.839Z,72.22
2022-11-29T11:21:20.519Z,69.22
2022-11-29T11:23:55.157Z,61.00
2022-11-29T11:26:24.481Z,63.90
2022-11-29T11:28:57.717Z,63.08
2022-11-29T11:31:35.611Z,63.35
2022-11-29T11:34:29.987Z,62.38
2022-11-29T11:39:52.934Z,55.17
2022-11-29T11:42:39.055Z,64.07
2022-11-29T11:45:27.659Z,65.60
2022-11-29T11:47:58.626Z,63.20
2022-11-29T11:50:33.732Z,58.65
2022-11-29T11:53:05.186Z,62.58
2022-11-29T11:55:37.987Z,62.92
2022-11-29T11:58:16.727Z,60.08
2022-11-29T12:01:03.612Z,54.10
2022-11-29T12:03:42.723Z,52.35
2022-11-29T12:06:30.810Z,52.30
2022-11-29T12:09:04.885Z,50.83
2022-11-29T12:11:42.233Z,57.92
2022-11-29T12:14:22.633Z,52.40
2022-11-29T12:16:55.016Z,59.97
2022-11-29T12:19:26.403Z,55.33
2022-11-29T12:22:00.428Z,62.25
2022-11-29T12:24:34.015Z,51.72
2022-11-29T12:27:06.298Z,46.60
2022-11-29T12:29:35.940Z,58.20
2022-11-29T12:32:21.365Z,44.70
2022-11-29T12:35:04.709Z,51.63
2022-11-29T12:37:38.292Z,50.17
2022-11-29T12:40:12.399Z,55.33
2022-11-29T12:42:53.373Z,54.28
2022-11-29T12:45:31.594Z,55.13
2022-11-29T12:48:10.133Z,52.22
2022-11-29T12:50:50.340Z,56.72
2022-11-29T12:53:37.469Z,54.35
2022-11-29T12:56:15.535Z,47.42
2022-11-29T12:58:57.371Z,46.65
2022-11-29T13:01:34.606Z,48.78
2022-11-29T13:04:13.330Z,44.25
2022-11-29T13:06:50.380Z,48.90
2022-11-29T13:09:49.087Z,49.65
2022-11-29T13:12:26.620Z,48.30
2022-11-29T13:15:03.056Z,56.55
2022-11-29T13:17:40.337Z,46.80
2022-11-29T13:20:21.324Z,54.65
2022-11-29T13:22:56.652Z,53.22
2022-11-29T13:25:29.815Z,52.38
2022-11-29T13:28:01.310Z,46.72
2022-11-29T13:30:30.601Z,50.90
2022-11-29T13:33:03.616Z,43.70
2022-11-29T13:35:37.457Z,51.13
2022-11-29T13:38:15.739Z,41.65
2022-11-29T13:40:53.182Z,44.90
2022-11-29T13:43:30.506Z,49.20
2022-11-29T13:46:10.480Z,49.58
2022-11-29T13:48:48.717Z,44.50
2022-11-29T13:51:32.487Z,51.65
2022-11-29T13:54:02.565Z,45.63
2022-11-29T13:56:36.519Z,49.13
2022-11-29T13:59:09.081Z,54.53
2022-11-29T14:01:53.850Z,51.50
2022-11-29T14:04:36.510Z,64.25
2022-11-29T14:07:10.892Z,57.47
2022-11-29T14:09:48.802Z,48.03
2022-11-29T14:12:39.650Z,49.05
2022-11-29T14:15:22.035Z,52.53
2022-11-29T14:17:54.127Z,55.42
2022-11-29T14:20:58.991Z,62.13
2022-11-29T14:23:36.172Z,61.58
2022-11-29T14:26:36.491Z,62.10
2022-11-29T14:29:41.908Z,56.40
2022-11-29T14:32:23.657Z,56.90
2022-11-29T14:34:59.045Z,65.80
2022-11-29T14:37:52.668Z,63.20
2022-11-29T14:40:28.528Z,63.22
2022-11-29T14:42:56.260Z,69.15
2022-11-29T14:45:27.873Z,53.47
2022-11-29T14:47:56.935Z,70.07
2022-11-29T14:50:37.878Z,63.42
2022-11-29T14:53:07.518Z,60.38
2022-11-29T14:55:37.079Z,57.92
2022-11-29T14:58:22.760Z,62.88
2022-11-29T15:01:10.739Z,61.13
2022-11-29T15:03:49.421Z,64.70
2022-11-29T15:06:26.967Z,66.78
2022-11-29T15:09:03.944Z,59.58
2022-11-29T15:11:37.901Z,63.90
2022-11-29T15:14:08.063Z,61.72
2022-11-29T15:16:59.367Z,58.25
2022-11-29T15:20:06.894Z,57.53
2022-11-29T15:22:47.851Z,60.05
2022-11-29T15:25:18.543Z,61.05
2022-11-29T15:27:54.094Z,56.25
2022-11-29T15:32:56.114Z,63.97
2022-11-29T15:35:24.211Z,59.88
2022-11-29T15:37:54.887Z,58.08
2022-11-29T15:40:24.687Z,57.75
2022-11-29T15:42:57.857Z,62.03
2022-11-29T15:45:34.522Z,58.75
2022-11-29T15:48:16.857Z,60.95
2022-11-29T15:50:50.694Z,69.68
2022-11-29T15:53:24.406Z,62.63
2022-11-29T15:55:55.353Z,60.67
2022-11-29T15:58:24.355Z,59.90
2022-11-29T16:00:53.018Z,62.75
2022-11-29T16:03:25.712Z,68.43
2022-11-29T16:06:04.377Z,56.20
2022-11-29T16:08:36.299Z,59.58
2022-11-29T16:11:06.336Z,54.90
2022-11-29T16:13:37.638Z,64.68
2022-11-29T16:16:14.463Z,60.50
2022-11-29T16:18:44.647Z,60.47
2022-11-29T16:21:27.178Z,58.88
2022-11-29T16:23:57.038Z,56.78
2022-11-29T16:26:29.736Z,60.25
2022-11-29T16:28:57.935Z,58.42
2022-11-29T16:31:33.902Z,65.25
2022-11-29T16:34:09.197Z,69.65
2022-11-29T16:36:37.742Z,66.78
2022-11-29T16:39:15.839Z,55.58
2022-11-29T16:41:43.866Z,56.45
2022-11-29T16:44:45.616Z,63.15
2022-11-29T16:47:18.494Z,69.00
2022-11-29T16:49:46.467Z,60.00
2022-11-29T16:52:25.207Z,57.03
2022-11-29T16:54:54.357Z,55.50
2022-11-29T16:57:22.580Z,62.28
2022-11-29T16:59:51.126Z,71.38
2022-11-29T17:02:19.255Z,65.75
2022-11-29T17:04:47.317Z,63.25
2022-11-29T17:07:22.971Z,64.18
2022-11-29T17:09:50.830Z,63.50
2022-11-29T17:12:20.022Z,60.75
2022-11-29T17:14:47.953Z,75.18
2022-11-29T17:17:17.204Z,65.50
2022-11-29T17:19:45.500Z,66.05
2022-11-29T17:22:13.735Z,57.33
2022-11-29T17:24:47.432Z,56.50
2022-11-29T17:27:16.023Z,62.90
2022-11-29T17:29:45.100Z,61.90
2022-11-29T17:32:12.833Z,58.78
2022-11-29T17:34:40.508Z,54.45
2022-11-29T17:37:08.238Z,55.05
2022-11-29T17:39:36.030Z,63.88
2022-11-29T17:42:03.754Z,56.05
2022-11-29T17:44:33.830Z,55.05
2022-11-29T17:47:02.894Z,67.80
2022-11-29T17:49:30.604Z,66.20
2022-11-29T17:51:58.293Z,55.30
2022-11-29T17:54:25.965Z,54.92
2022-11-29T17:56:53.753Z,49.17
2022-11-29T17:59:21.416Z,58.25
2022-11-29T18:01:49.264Z,51.65
2022-11-29T18:04:18.454Z,55.88
2022-11-29T18:06:50.002Z,48.00
2022-11-29T18:09:19.416Z,51.30
2022-11-29T18:11:49.873Z,52.60
2022-11-29T18:14:20.640Z,58.17
2022-11-29T18:16:48.461Z,60.42
2022-11-29T18:19:19.248Z,57.42
2022-11-29T18:21:47.381Z,66.22
2022-11-29T18:24:15.260Z,61.88
2022-11-29T18:26:43.548Z,65.78
2022-11-29T18:29:12.353Z,62.22
2022-11-29T18:31:43.078Z,61.35
2022-11-29T18:34:13.331Z,67.97
2022-11-29T18:36:44.302Z,67.10
2022-11-29T18:39:14.815Z,64.70
2022-11-29T18:41:43.906Z,57.78
2022-11-29T18:44:14.124Z,71.15
2022-11-29T18:46:43.778Z,73.07
2022-11-29T18:49:13.294Z,65.53
2022-11-29T18:51:44.466Z,60.92
2022-11-29T18:54:12.972Z,62.28
2022-11-29T18:56:41.109Z,68.80
2022-11-29T18:59:12.001Z,69.13
2022-11-29T19:01:42.459Z,64.35
2022-11-29T19:04:12.601Z,69.18
2022-11-29T19:06:42.435Z,63.38
2022-11-29T19:09:13.561Z,58.83
2022-11-29T19:11:42.064Z,61.60
2022-11-29T19:14:12.679Z,66.82
2022-11-29T19:16:45.090Z,64.22
2022-11-29T19:19:14.905Z,57.22
2022-11-29T19:21:45.190Z,63.88
2022-11-29T19:24:15.209Z,58.65
2022-11-29T19:26:45.314Z,61.72
2022-11-29T19:29:13.754Z,76.25
2022-11-29T19:31:42.292Z,76.88
2022-11-29T19:34:10.074Z,83.05
2022-11-29T19:36:43.087Z,79.90
2022-11-29T19:39:13.853Z,80.45
2022-11-29T19:41:43.334Z,66.10
2022-11-29T19:44:11.725Z,81.05
2022-11-29T19:46:41.548Z,79.60
2022-11-29T19:49:10.016Z,70.97
2022-11-29T19:51:37.721Z,65.50
2022-11-29T19:54:07.701Z,65.53
2022-11-29T19:56:36.842Z,62.47
2022-11-29T19:59:04.836Z,62.92
2022-11-29T20:01:40.389Z,69.78
2022-11-29T20:04:10.464Z,69.18
2022-11-29T20:06:38.377Z,57.03
2022-11-29T20:09:06.907Z,61.22
2022-11-29T20:11:36.457Z,54.38
2022-11-29T20:14:05.820Z,56.10
2022-11-29T20:16:34.766Z,58.55
2022-11-29T20:19:02.656Z,55.28
2022-11-29T20:21:32.326Z,59.15
2022-11-29T20:24:04.176Z,60.70
2022-11-29T20:26:34.609Z,61.38
2022-11-29T20:29:04.802Z,62.85
2022-11-29T20:31:34.429Z,66.72
2022-11-29T20:34:03.041Z,66.78
2022-11-29T20:36:40.861Z,65.65
2022-11-29T20:39:19.555Z,59.92
2022-11-29T20:42:07.444Z,59.63
2022-11-29T20:44:39.627Z,56.05
2022-11-29T20:47:15.244Z,56.83
2022-11-29T20:49:43.517Z,65.93
2022-11-29T20:52:19.847Z,57.67
2022-11-29T20:54:47.940Z,58.47
2022-11-29T20:57:16.153Z,53.95
2022-11-29T20:59:45.457Z,64.53
2022-11-29T21:02:13.315Z,58.45
2022-11-29T21:04:41.112Z,63.33
2022-11-29T21:07:08.820Z,60.05
2022-11-29T21:09:36.573Z,54.58
2022-11-29T21:12:04.852Z,55.75
2022-11-29T21:14:33.346Z,61.75
2022-11-29T21:17:03.352Z,52.40
2022-11-29T21:19:31.607Z,53.75
2022-11-29T21:22:08.354Z,56.47
2022-11-29T21:24:46.033Z,59.28
2022-11-29T21:27:28.283Z,48.70
2022-11-29T21:29:56.939Z,59.67
2022-11-29T21:32:28.251Z,47.55
2022-11-29T21:34:56.112Z,57.53
2022-11-29T21:37:28.362Z,53.80
2022-11-29T21:39:56.311Z,55.83
2022-11-29T21:42:24.152Z,49.88
2022-11-29T21:44:52.089Z,50.30
2022-11-29T21:47:19.795Z,55.85
2022-11-29T21:49:48.922Z,47.08
2022-11-29T21:52:22.237Z,55.22
2022-11-29T21:54:50.961Z,53.20
2022-11-29T21:57:18.710Z,64.63
2022-11-29T21:59:46.363Z,59.03
2022-11-29T22:02:14.680Z,58.70
2022-11-29T22:04:42.504Z,56.72
2022-11-29T22:07:11.747Z,62.53
2022-11-29T22:09:39.505Z,63.95
2022-11-29T22:12:32.046Z,68.68
2022-11-29T22:14:55.330Z,58.92
2022-11-29T22:17:23.402Z,60.20
2022-11-29T22:19:51.166Z,53.35
2022-11-29T22:22:20.241Z,60.90
2022-11-29T22:24:48.308Z,65.95
2022-11-29T22:27:18.280Z,63.35
2022-11-29T22:29:46.083Z,61.33
2022-11-29T22:32:14.608Z,60.25
2022-11-29T22:34:42.323Z,65.28
2022-11-29T22:37:10.247Z,62.80
2022-11-29T22:39:39.772Z,66.53
2022-11-29T22:42:08.453Z,73.53
2022-11-29T22:44:36.223Z,54.60
2022-11-29T22:47:03.979Z,66.70
2022-11-29T22:49:33.150Z,58.70
2022-11-29T22:52:00.860Z,55.45
2022-11-29T22:54:29.237Z,56.95
2022-11-29T22:56:58.272Z,60.00
2022-11-29T22:59:25.970Z,65.63
2022-11-29T23:01:53.861Z,55.83
2022-11-29T23:04:21.610Z,57.65
2022-11-29T23:06:49.292Z,57.15
2022-11-29T23:09:20.690Z,54.25
2022-11-29T23:11:52.904Z,57.20
2022-11-29T23:14:23.156Z,54.58
2022-11-29T23:16:51.068Z,60.85
2022-11-29T23:19:19.144Z,63.33
2022-11-29T23:21:47.605Z,60.80
2022-11-29T23:24:16.012Z,51.13
2022-11-29T23:26:46.662Z,56.50
2022-11-29T23:29:16.981Z,54.47
2022-11-29T23:31:46.544Z,53.47
2022-11-29T23:34:14.950Z,56.92
2022-11-29T23:36:45.733Z,50.58
2022-11-29T23:39:16.083Z,60.60
2022-11-29T23:41:44.276Z,53.45
2022-11-29T23:44:12.339Z,60.05
2022-11-29T23:46:40.058Z,51.50
2022-11-29T23:49:09.113Z,63.25
2022-11-29T23:51:36.872Z,71.55
2022-11-29T23:54:04.738Z,61.42
2022-11-29T23:56:35.190Z,70.45
2022-11-29T23:59:02.977Z,68.15
